createdAt,value
2023-05-13T00:02:01.001Z,100892.56
2023-05-13T00:05:03.901Z,100894.47
2023-05-13T00:08:09.397Z,100884.06
2023-05-13T00:11:11.870Z,100892.00
2023-05-13T00:14:14.150Z,100892.00
2023-05-13T00:17:17.252Z,100897.50
2023-05-13T00:20:20.612Z,100892.41
2023-05-13T00:23:23.324Z,100892.22
2023-05-13T00:26:25.571Z,100894.87
2023-05-13T00:29:28.331Z,100896.00
2023-05-13T00:32:31.590Z,100897.87
2023-05-13T00:35:34.111Z,100895.44
2023-05-13T00:38:37.074Z,100900.72
2023-05-13T00:41:39.693Z,100897.31
2023-05-13T00:44:42.240Z,100906.50
2023-05-13T00:47:45.225Z,100900.63
2023-05-13T00:50:48.572Z,100906.22
2023-05-13T00:53:51.220Z,100905.41
2023-05-13T00:56:56.649Z,100903.09
2023-05-13T00:59:59.890Z,100907.00
2023-05-13T01:03:29.387Z,100905.56
2023-05-13T01:06:56.941Z,100918.87
2023-05-13T01:10:20.128Z,100906.31
2023-05-13T01:13:28.615Z,100909.72
2023-05-13T01:16:39.575Z,100909.16
2023-05-13T01:19:49.617Z,100917.00
2023-05-13T01:22:51.908Z,100919.19
2023-05-13T01:25:54.638Z,100913.16
2023-05-13T01:28:57.512Z,100916.25
2023-05-13T01:32:01.214Z,100914.94
2023-05-13T01:35:04.426Z,100920.97
2023-05-13T01:38:09.034Z,100917.97
2023-05-13T01:41:11.761Z,100915.59
2023-05-13T01:44:14.298Z,100920.88
2023-05-13T01:47:16.751Z,100919.19
2023-05-13T01:50:20.183Z,100921.09
2023-05-13T01:53:22.772Z,100922.50
2023-05-13T01:56:26.229Z,100920.03
2023-05-13T01:59:28.845Z,100925.41
2023-05-13T02:02:31.474Z,100926.16
2023-05-13T02:05:34.557Z,100919.19
2023-05-13T02:08:37.667Z,100932.00
2023-05-13T02:11:40.494Z,100931.56
2023-05-13T02:14:42.850Z,100930.41
2023-05-13T02:17:45.548Z,100922.09
2023-05-13T02:20:48.644Z,100928.31
2023-05-13T02:23:51.914Z,100925.78
2023-05-13T02:26:54.511Z,100926.62
2023-05-13T02:29:57.196Z,100932.50
2023-05-13T02:33:01.210Z,100930.03
2023-05-13T02:36:04.470Z,100920.41
2023-05-13T02:39:07.274Z,100925.78
2023-05-13T02:42:10.544Z,100932.28
2023-05-13T02:45:12.912Z,100930.84
2023-05-13T02:48:17.166Z,100935.69
2023-05-13T02:51:20.001Z,100932.00
2023-05-13T02:54:23.076Z,100938.87
2023-05-13T02:57:25.483Z,100939.72
2023-05-13T03:00:28.189Z,100939.81
2023-05-13T03:03:31.231Z,100937.38
2023-05-13T03:06:33.928Z,100943.88
2023-05-13T03:09:39.137Z,100941.13
2023-05-13T03:12:43.399Z,100941.16
2023-05-13T03:15:45.738Z,100944.16
2023-05-13T03:18:48.490Z,100945.78
2023-05-13T03:21:51.698Z,100945.87
2023-05-13T03:24:54.617Z,100946.03
2023-05-13T03:27:58.270Z,100948.78
2023-05-13T03:31:02.133Z,100944.53
2023-05-13T03:34:05.356Z,100946.91
2023-05-13T03:37:08.922Z,100953.97
2023-05-13T03:40:11.969Z,100956.44
2023-05-13T03:43:15.040Z,100951.31
2023-05-13T03:46:17.896Z,100964.12
2023-05-13T03:49:20.677Z,100962.66
2023-05-13T03:52:23.473Z,100966.06
2023-05-13T03:55:26.303Z,100967.53
2023-05-13T03:58:29.730Z,100968.75
2023-05-13T04:01:33.232Z,100966.78
2023-05-13T04:04:36.005Z,100972.66
2023-05-13T04:07:38.392Z,100969.22
2023-05-13T04:10:40.887Z,100982.13
2023-05-13T04:13:44.261Z,100983.09
2023-05-13T04:16:47.047Z,100988.75
2023-05-13T04:19:52.895Z,100983.56
2023-05-13T04:22:55.644Z,100979.69
2023-05-13T04:25:58.260Z,100991.31
2023-05-13T04:29:01.214Z,100983.28
2023-05-13T04:32:03.759Z,100993.37
2023-05-13T04:35:09.592Z,100995.34
2023-05-13T04:38:13.032Z,100991.84
2023-05-13T04:41:15.806Z,101004.06
2023-05-13T04:44:19.148Z,101006.59
2023-05-13T04:47:22.870Z,101009.34
2023-05-13T04:50:26.051Z,101007.00
2023-05-13T04:53:29.834Z,101003.06
2023-05-13T04:56:32.713Z,101004.75
2023-05-13T04:59:36.150Z,101011.84
2023-05-13T05:02:38.811Z,101017.53
2023-05-13T05:05:41.822Z,101020.59
2023-05-13T05:08:44.602Z,101021.25
2023-05-13T05:11:50.346Z,101030.91
2023-05-13T05:14:53.061Z,101023.34
2023-05-13T05:17:57.055Z,101013.41
2023-05-13T05:21:02.448Z,101018.44
2023-05-13T05:24:06.243Z,101024.84
2023-05-13T05:27:08.859Z,101023.50
2023-05-13T05:30:12.528Z,101019.25
2023-05-13T05:33:15.397Z,101023.31
2023-05-13T05:36:18.431Z,101023.22
2023-05-13T05:39:21.243Z,101032.19
2023-05-13T05:42:24.147Z,101035.44
2023-05-13T05:45:26.654Z,101035.72
2023-05-13T05:48:29.748Z,101038.47
2023-05-13T05:51:32.428Z,101039.22
2023-05-13T05:54:35.994Z,101029.50
2023-05-13T05:57:38.178Z,101030.44
2023-05-13T06:00:40.734Z,101035.44
2023-05-13T06:03:43.353Z,101032.19
2023-05-13T06:06:46.115Z,101041.94
2023-05-13T06:09:48.998Z,101048.44
2023-05-13T06:12:51.559Z,101049.88
2023-05-13T06:15:54.165Z,101044.13
2023-05-13T06:18:56.627Z,101046.78
2023-05-13T06:22:02.616Z,101046.78
2023-05-13T06:25:06.540Z,101045.56
2023-05-13T06:28:12.029Z,101052.16
2023-05-13T06:31:15.046Z,101049.34
2023-05-13T06:34:19.415Z,101061.34
2023-05-13T06:37:21.761Z,101055.59
2023-05-13T06:40:25.278Z,101052.19
2023-05-13T06:43:28.639Z,101049.75
2023-05-13T06:46:31.588Z,101062.41
2023-05-13T06:49:34.269Z,101058.16
2023-05-13T06:52:38.612Z,101056.84
2023-05-13T06:55:42.689Z,101056.63
2023-05-13T06:58:45.660Z,101056.06
2023-05-13T07:01:48.013Z,101052.19
2023-05-13T07:04:50.617Z,101050.19
2023-05-13T07:07:53.755Z,101053.03
2023-05-13T07:10:56.433Z,101053.59
2023-05-13T07:13:58.775Z,101060.03
2023-05-13T07:17:02.267Z,101059.06
2023-05-13T07:20:05.230Z,101051.63
2023-05-13T07:23:07.819Z,101054.16
2023-05-13T07:26:10.390Z,101044.81
2023-05-13T07:29:12.954Z,101056.84
2023-05-13T07:32:15.806Z,101065.44
2023-05-13T07:35:18.633Z,101065.62
2023-05-13T07:38:21.386Z,101062.22
2023-05-13T07:41:23.880Z,101058.09
2023-05-13T07:44:26.482Z,101067.66
2023-05-13T07:47:31.326Z,101074.66
2023-05-13T07:50:33.708Z,101071.28
2023-05-13T07:53:36.760Z,101068.97
2023-05-13T07:56:39.140Z,101073.50
2023-05-13T07:59:44.514Z,101077.00
2023-05-13T08:02:47.179Z,101077.75
2023-05-13T08:05:49.912Z,101089.34
2023-05-13T08:08:52.144Z,101093.06
2023-05-13T08:11:55.160Z,101090.06
2023-05-13T08:14:57.470Z,101099.25
2023-05-13T08:18:00.810Z,101103.50
2023-05-13T08:21:03.342Z,101111.16
2023-05-13T08:24:06.593Z,101106.75
2023-05-13T08:27:08.903Z,101116.09
2023-05-13T08:30:11.885Z,101114.78
2023-05-13T08:33:14.207Z,101117.81
2023-05-13T08:36:17.132Z,101120.56
2023-05-13T08:39:19.767Z,101127.28
2023-05-13T08:42:24.578Z,101132.91
2023-05-13T08:45:29.515Z,101123.16
2023-05-13T08:48:33.988Z,101126.03
2023-05-13T08:51:36.325Z,101119.66
2023-05-13T08:54:39.769Z,101122.91
2023-05-13T08:57:42.062Z,101116.16
2023-05-13T09:00:45.078Z,101124.69
2023-05-13T09:03:59.873Z,101126.81
2023-05-13T09:07:02.711Z,101118.16
2023-05-13T09:10:08.623Z,101122.50
2023-05-13T09:13:17.157Z,101122.38
2023-05-13T09:16:19.818Z,101121.63
2023-05-13T09:19:24.807Z,101124.94
2023-05-13T09:22:27.499Z,101120.56
2023-05-13T09:25:31.119Z,101115.22
2023-05-13T09:28:33.820Z,101117.44
2023-05-13T09:31:36.378Z,101107.69
2023-05-13T09:34:40.235Z,101111.72
2023-05-13T09:37:47.433Z,101110.19
2023-05-13T09:40:59.676Z,101112.63
2023-05-13T09:44:04.032Z,101111.50
2023-05-13T09:47:06.451Z,101118.47
2023-05-13T09:50:12.371Z,101126.22
2023-05-13T09:53:14.555Z,101123.38
2023-05-13T09:56:24.104Z,101120.69
2023-05-13T09:59:26.580Z,101115.78
2023-05-13T10:02:29.452Z,101117.25
2023-05-13T10:05:33.236Z,101108.13
2023-05-13T10:08:36.386Z,101113.25
2023-05-13T10:11:41.282Z,101101.87
2023-05-13T10:14:44.144Z,101110.41
2023-05-13T10:17:47.712Z,101098.66
2023-05-13T10:20:53.637Z,101110.03
2023-05-13T10:23:57.092Z,101106.41
2023-05-13T10:27:01.794Z,101105.31
2023-05-13T10:30:09.706Z,101109.97
2023-05-13T10:33:12.354Z,101115.31
2023-05-13T10:36:37.048Z,101095.97
2023-05-13T10:40:05.205Z,101105.16
2023-05-13T10:43:13.356Z,101098.72
2023-05-13T10:46:16.275Z,101099.66
2023-05-13T10:49:18.906Z,101104.03
2023-05-13T10:52:21.477Z,101104.59
2023-05-13T10:55:26.255Z,101101.28
2023-05-13T10:58:34.053Z,101107.19
2023-05-13T11:01:43.256Z,101107.72
2023-05-13T11:05:01.622Z,101109.75
2023-05-13T11:08:04.557Z,101102.84
2023-05-13T11:11:19.313Z,101105.56
2023-05-13T11:14:24.789Z,101106.50
2023-05-13T11:17:27.151Z,101097.16
2023-05-13T11:20:33.775Z,101105.28
2023-05-13T11:24:00.899Z,101102.72
2023-05-13T11:27:20.549Z,101107.19
2023-05-13T11:30:26.209Z,101105.78
2023-05-13T11:34:09.414Z,101103.94
2023-05-13T11:37:12.131Z,101103.31
2023-05-13T11:40:25.876Z,101100.19
2023-05-13T11:43:29.566Z,101104.75
2023-05-13T11:46:32.069Z,101100.59
2023-05-13T11:49:45.372Z,101102.47
2023-05-13T11:52:55.794Z,101104.72
2023-05-13T11:56:09.176Z,101112.19
2023-05-13T11:59:15.633Z,101105.03
2023-05-13T12:02:23.214Z,101108.88
2023-05-13T12:05:26.981Z,101101.78
2023-05-13T12:08:30.106Z,101106.28
2023-05-13T12:11:33.479Z,101115.50
2023-05-13T12:14:35.882Z,101103.62
2023-05-13T12:17:38.732Z,101113.19
2023-05-13T12:20:41.205Z,101111.37
2023-05-13T12:23:43.767Z,101115.84
2023-05-13T12:26:46.210Z,101120.81
2023-05-13T12:29:49.889Z,101124.56
2023-05-13T12:32:52.226Z,101122.56
2023-05-13T12:36:15.742Z,101113.12
2023-05-13T12:39:20.601Z,101121.19
2023-05-13T12:42:23.152Z,101115.91
2023-05-13T12:45:33.000Z,101116.19
2023-05-13T12:48:35.651Z,101123.47
2023-05-13T12:51:37.915Z,101119.72
2023-05-13T12:54:40.589Z,101115.44
2023-05-13T12:57:43.099Z,101118.50
2023-05-13T13:00:46.211Z,101112.69
2023-05-13T13:03:48.548Z,101115.31
2023-05-13T13:06:51.493Z,101110.75
2023-05-13T13:09:55.428Z,101112.34
2023-05-13T13:12:58.013Z,101110.78
2023-05-13T13:16:01.528Z,101112.34
2023-05-13T13:19:04.042Z,101122.16
2023-05-13T13:22:06.260Z,101112.47
2023-05-13T13:25:09.305Z,101112.69
2023-05-13T13:28:11.644Z,101105.78
2023-05-13T13:31:14.545Z,101108.34
2023-05-13T13:34:16.774Z,101107.50
2023-05-13T13:37:19.279Z,101108.84
2023-05-13T13:40:21.906Z,101112.84
2023-05-13T13:43:24.819Z,101107.72
2023-05-13T13:46:27.578Z,101105.41
2023-05-13T13:49:30.389Z,101104.47
2023-05-13T13:52:33.020Z,101108.94
2023-05-13T13:55:35.614Z,101109.78
2023-05-13T13:58:38.178Z,101101.19
2023-05-13T14:01:40.761Z,101105.91
2023-05-13T14:04:43.254Z,101098.16
2023-05-13T14:07:46.362Z,101099.84
2023-05-13T14:10:49.296Z,101107.25
2023-05-13T14:13:51.867Z,101098.28
2023-05-13T14:16:54.411Z,101095.47
2023-05-13T14:19:57.036Z,101095.25
2023-05-13T14:22:59.966Z,101087.72
2023-05-13T14:26:02.524Z,101082.75
2023-05-13T14:29:05.303Z,101078.88
2023-05-13T14:32:07.726Z,101082.28
2023-05-13T14:35:10.491Z,101076.56
2023-05-13T14:38:13.020Z,101068.03
2023-05-13T14:41:20.744Z,101073.41
2023-05-13T14:44:22.928Z,101070.53
2023-05-13T14:47:25.505Z,101070.94
2023-05-13T14:50:27.740Z,101075.38
2023-05-13T14:53:30.668Z,101079.09
2023-05-13T14:56:33.038Z,101073.28
2023-05-13T14:59:35.733Z,101076.59
2023-05-13T15:02:38.829Z,101078.19
2023-05-13T15:05:43.985Z,101073.09
2023-05-13T15:08:47.003Z,101074.66
2023-05-13T15:11:49.615Z,101075.25
2023-05-13T15:14:53.465Z,101072.22
2023-05-13T15:17:56.134Z,101066.88
2023-05-13T15:20:58.681Z,101061.44
2023-05-13T15:24:01.319Z,101065.56
2023-05-13T15:27:03.848Z,101056.72
2023-05-13T15:30:07.110Z,101063.47
2023-05-13T15:33:09.853Z,101073.19
2023-05-13T15:36:12.529Z,101069.81
2023-05-13T15:39:16.581Z,101074.91
2023-05-13T15:42:19.265Z,101065.09
2023-05-13T15:45:21.604Z,101067.50
2023-05-13T15:48:24.346Z,101075.50
2023-05-13T15:51:26.974Z,101072.22
2023-05-13T15:54:29.601Z,101071.16
2023-05-13T15:57:31.938Z,101077.31
2023-05-13T16:00:34.504Z,101073.81
2023-05-13T16:03:38.667Z,101079.38
2023-05-13T16:06:41.484Z,101083.75
2023-05-13T16:09:44.429Z,101079.38
2023-05-13T16:12:46.809Z,101082.16
2023-05-13T16:15:49.749Z,101080.44
2023-05-13T16:18:52.501Z,101072.34
2023-05-13T16:21:55.603Z,101076.97
2023-05-13T16:25:02.473Z,101072.69
2023-05-13T16:28:05.700Z,101069.81
2023-05-13T16:31:07.986Z,101065.81
2023-05-13T16:34:10.673Z,101062.75
2023-05-13T16:37:13.059Z,101060.84
2023-05-13T16:40:15.686Z,101060.00
2023-05-13T16:43:17.871Z,101056.59
2023-05-13T16:46:20.382Z,101054.28
2023-05-13T16:49:23.006Z,101048.72
2023-05-13T16:52:26.372Z,101053.06
2023-05-13T16:55:28.638Z,101058.03
2023-05-13T16:58:31.539Z,101047.97
2023-05-13T17:01:33.865Z,101051.50
2023-05-13T17:04:36.931Z,101051.38
2023-05-13T17:07:39.619Z,101048.69
2023-05-13T17:10:42.305Z,101046.87
2023-05-13T17:13:45.241Z,101043.22
2023-05-13T17:16:48.086Z,101044.09
2023-05-13T17:19:50.493Z,101050.37
2023-05-13T17:22:53.038Z,101061.66
2023-05-13T17:25:55.272Z,101059.56
2023-05-13T17:28:58.194Z,101052.78
2023-05-13T17:32:00.404Z,101048.16
2023-05-13T17:35:05.367Z,101044.50
2023-05-13T17:38:08.034Z,101034.47
2023-05-13T17:41:10.763Z,101027.31
2023-05-13T17:44:13.130Z,101038.69
2023-05-13T17:47:16.493Z,101038.31
2023-05-13T17:50:19.783Z,101036.75
2023-05-13T17:53:22.748Z,101034.75
2023-05-13T17:56:25.255Z,101043.22
2023-05-13T17:59:27.916Z,101032.09
2023-05-13T18:02:30.257Z,101038.69
2023-05-13T18:05:33.308Z,101043.69
2023-05-13T18:08:36.125Z,101053.38
2023-05-13T18:11:38.809Z,101056.75
2023-05-13T18:14:41.136Z,101057.00
2023-05-13T18:17:43.836Z,101042.34
2023-05-13T18:20:46.197Z,101037.00
2023-05-13T18:23:48.748Z,101038.31
2023-05-13T18:26:51.300Z,101019.28
2023-05-13T18:29:53.814Z,101032.09
2023-05-13T18:32:56.120Z,101042.38
2023-05-13T18:35:58.814Z,101047.37
2023-05-13T18:39:01.105Z,101047.81
2023-05-13T18:42:03.756Z,101053.59
2023-05-13T18:45:06.683Z,101060.63
2023-05-13T18:48:09.191Z,101072.13
2023-05-13T18:51:11.888Z,101067.00
2023-05-13T18:54:14.523Z,101075.50
2023-05-13T18:57:17.194Z,101070.31
2023-05-13T19:00:20.093Z,101072.84
2023-05-13T19:03:22.410Z,101072.97
2023-05-13T19:06:25.179Z,101071.59
2023-05-13T19:09:27.364Z,101077.16
2023-05-13T19:12:29.999Z,101077.81
2023-05-13T19:15:33.301Z,101075.56
2023-05-13T19:18:36.243Z,101072.91
2023-05-13T19:21:38.380Z,101074.31
2023-05-13T19:24:41.249Z,101072.72
2023-05-13T19:27:44.482Z,101074.75
2023-05-13T19:30:47.212Z,101079.16
2023-05-13T19:33:49.404Z,101076.97
2023-05-13T19:36:51.925Z,101078.41
2023-05-13T19:39:54.116Z,101072.72
2023-05-13T19:42:57.011Z,101075.59
2023-05-13T19:45:59.322Z,101077.53
2023-05-13T19:49:02.181Z,101071.37
2023-05-13T19:52:04.790Z,101070.53
2023-05-13T19:55:07.917Z,101069.69
2023-05-13T19:58:10.562Z,101073.34
2023-05-13T20:01:14.862Z,101074.28
2023-05-13T20:04:17.751Z,101078.56
2023-05-13T20:07:20.357Z,101078.75
2023-05-13T20:10:23.520Z,101079.72
2023-05-13T20:13:26.104Z,101078.22
2023-05-13T20:16:28.887Z,101070.38
2023-05-13T20:19:32.020Z,101064.00
2023-05-13T20:22:35.143Z,101067.00
2023-05-13T20:25:37.682Z,101067.94
2023-05-13T20:28:40.243Z,101072.94
2023-05-13T20:31:43.192Z,101074.25
2023-05-13T20:34:46.094Z,101072.66
2023-05-13T20:37:48.702Z,101068.84
2023-05-13T20:40:51.196Z,101072.03
2023-05-13T20:43:53.833Z,101064.28
2023-05-13T20:46:56.467Z,101062.31
2023-05-13T20:49:58.796Z,101053.09
2023-05-13T20:53:01.484Z,101059.12
2023-05-13T20:56:04.531Z,101054.47
2023-05-13T20:59:07.646Z,101049.91
2023-05-13T21:02:09.920Z,101056.28
2023-05-13T21:05:12.819Z,101055.66
2023-05-13T21:08:16.131Z,101053.00
2023-05-13T21:11:18.520Z,101048.19
2023-05-13T21:14:20.659Z,101042.03
2023-05-13T21:17:24.609Z,101048.62
2023-05-13T21:20:27.338Z,101046.09
2023-05-13T21:23:30.473Z,101042.91
2023-05-13T21:26:33.472Z,101061.16
2023-05-13T21:29:36.431Z,101045.12
2023-05-13T21:32:38.647Z,101044.56
2023-05-13T21:35:41.225Z,101041.72
2023-05-13T21:38:43.686Z,101039.06
2023-05-13T21:41:47.636Z,101041.09
2023-05-13T21:44:49.927Z,101047.66
2023-05-13T21:47:52.594Z,101043.44
2023-05-13T21:50:55.610Z,101050.53
2023-05-13T21:53:58.136Z,101040.56
2023-05-13T21:57:01.182Z,101046.06
2023-05-13T22:00:10.512Z,101040.87
2023-05-13T22:03:18.234Z,101035.66
2023-05-13T22:06:20.802Z,101029.09
2023-05-13T22:09:23.382Z,101021.53
2023-05-13T22:12:26.898Z,101015.38
2023-05-13T22:15:29.171Z,101012.31
2023-05-13T22:18:32.204Z,101017.81
2023-05-13T22:21:34.631Z,101014.53
2023-05-13T22:24:37.274Z,101020.56
2023-05-13T22:27:39.684Z,101029.06
2023-05-13T22:30:42.390Z,101022.59
2023-05-13T22:33:44.606Z,101025.69
2023-05-13T22:36:47.488Z,101029.94
2023-05-13T22:39:49.696Z,101036.94
2023-05-13T22:42:52.327Z,101027.28
2023-05-13T22:45:55.017Z,101022.09
2023-05-13T22:48:57.689Z,101018.69
2023-05-13T22:52:00.132Z,101019.84
2023-05-13T22:55:03.103Z,101015.91
2023-05-13T22:58:05.629Z,101019.50
2023-05-13T23:01:08.478Z,101019.81
2023-05-13T23:04:10.991Z,101020.03
2023-05-13T23:07:13.694Z,101014.50
2023-05-13T23:10:16.080Z,101010.37
2023-05-13T23:13:18.985Z,101004.62
2023-05-13T23:16:21.311Z,101008.44
2023-05-13T23:19:26.572Z,101008.78
2023-05-13T23:22:29.198Z,101012.06
2023-05-13T23:25:31.697Z,101008.88
2023-05-13T23:28:35.092Z,100999.75
2023-05-13T23:31:40.205Z,101004.84
2023-05-13T23:34:42.856Z,101002.94
2023-05-13T23:37:45.478Z,101001.34
2023-05-13T23:40:48.441Z,101006.87
2023-05-13T23:43:51.045Z,101001.56
2023-05-13T23:46:53.343Z,101007.19
2023-05-13T23:49:57.942Z,101002.81
2023-05-13T23:53:01.191Z,101002.94
2023-05-13T23:56:04.086Z,101004.53
2023-05-13T23:59:06.233Z,100992.31
